sensor_id;sensor_type;location;lat;lon;timestamp;pressure;altitude;pressure_sealevel;temperature;humidity
39699;BME280;25372;50.582;12.250;2022-11-15T00:04:02;99874.38;;;2.42;100.00
39699;BME280;25372;50.582;12.250;2022-11-15T00:14:43;99874.84;;;2.36;100.00
39699;BME280;25372;50.582;12.250;2022-11-15T00:25:23;99858.41;;;2.55;100.00
39699;BME280;25372;50.582;12.250;2022-11-15T00:36:06;99836.09;;;2.82;100.00
39699;BME280;25372;50.582;12.250;2022-11-15T00:46:47;99818.22;;;2.56;100.00
39699;BME280;25372;50.582;12.250;2022-11-15T00:57:28;99846.97;;;2.87;100.00
39699;BME280;25372;50.582;12.250;2022-11-15T01:08:12;99846.78;;;2.69;100.00
39699;BME280;25372;50.582;12.250;2022-11-15T01:18:53;99833.78;;;2.57;100.00
39699;BME280;25372;50.582;12.250;2022-11-15T01:29:33;99824.53;;;2.43;100.00
39699;BME280;25372;50.582;12.250;2022-11-15T01:40:14;99820.41;;;2.20;100.00
39699;BME280;25372;50.582;12.250;2022-11-15T01:50:54;99808.31;;;2.19;100.00
39699;BME280;25372;50.582;12.250;2022-11-15T02:01:35;99786.38;;;2.10;100.00
39699;BME280;25372;50.582;12.250;2022-11-15T02:12:17;99779.19;;;2.02;100.00
39699;BME280;25372;50.582;12.250;2022-11-15T02:34:11;99783.13;;;2.18;100.00
39699;BME280;25372;50.582;12.250;2022-11-15T02:44:57;99761.78;;;2.63;100.00
39699;BME280;25372;50.582;12.250;2022-11-15T02:55:43;99758.06;;;2.56;100.00
39699;BME280;25372;50.582;12.250;2022-11-15T03:06:29;99753.34;;;2.50;100.00
39699;BME280;25372;50.582;12.250;2022-11-15T03:17:16;99731.66;;;2.78;100.00
39699;BME280;25372;50.582;12.250;2022-11-15T03:28:02;99730.78;;;2.49;100.00
39699;BME280;25372;50.582;12.250;2022-11-15T03:38:45;99732.00;;;2.35;100.00
39699;BME280;25372;50.582;12.250;2022-11-15T03:49:27;99718.31;;;2.21;100.00
39699;BME280;25372;50.582;12.250;2022-11-15T04:00:10;99710.66;;;1.99;100.00
39699;BME280;25372;50.582;12.250;2022-11-15T04:10:51;99703.50;;;2.01;100.00
39699;BME280;25372;50.582;12.250;2022-11-15T04:21:32;99705.38;;;1.89;100.00
39699;BME280;25372;50.582;12.250;2022-11-15T04:32:29;99707.19;;;1.88;100.00
39699;BME280;25372;50.582;12.250;2022-11-15T04:43:10;99647.25;;;1.66;100.00
39699;BME280;25372;50.582;12.250;2022-11-15T04:53:50;99679.72;;;1.73;100.00
39699;BME280;25372;50.582;12.250;2022-11-15T05:04:31;99683.06;;;1.75;100.00
39699;BME280;25372;50.582;12.250;2022-11-15T05:15:11;99678.38;;;1.79;100.00
39699;BME280;25372;50.582;12.250;2022-11-15T05:25:52;99663.75;;;1.66;100.00
39699;BME280;25372;50.582;12.250;2022-11-15T05:36:35;99668.78;;;1.89;100.00
39699;BME280;25372;50.582;12.250;2022-11-15T05:47:19;99682.41;;;1.83;100.00
39699;BME280;25372;50.582;12.250;2022-11-15T05:58:00;99662.69;;;1.79;100.00
39699;BME280;25372;50.582;12.250;2022-11-15T06:08:41;99671.69;;;2.36;100.00
39699;BME280;25372;50.582;12.250;2022-11-15T06:19:21;99654.63;;;2.52;100.00
39699;BME280;25372;50.582;12.250;2022-11-15T06:30:03;99682.47;;;2.63;100.00
39699;BME280;25372;50.582;12.250;2022-11-15T06:40:43;99689.09;;;2.67;100.00
39699;BME280;25372;50.582;12.250;2022-11-15T06:51:24;99697.31;;;3.30;100.00
39699;BME280;25372;50.582;12.250;2022-11-15T07:02:04;99687.06;;;3.57;100.00
39699;BME280;25372;50.582;12.250;2022-11-15T07:12:47;99689.22;;;3.81;100.00
39699;BME280;25372;50.582;12.250;2022-11-15T07:23:27;99702.16;;;3.92;100.00
39699;BME280;25372;50.582;12.250;2022-11-15T07:34:08;99711.72;;;4.11;100.00
39699;BME280;25372;50.582;12.250;2022-11-15T07:44:48;99703.75;;;4.31;100.00
39699;BME280;25372;50.582;12.250;2022-11-15T07:55:29;99698.13;;;4.71;100.00
39699;BME280;25372;50.582;12.250;2022-11-15T08:06:08;99700.94;;;4.88;100.00
39699;BME280;25372;50.582;12.250;2022-11-15T08:16:50;99696.94;;;5.02;100.00
39699;BME280;25372;50.582;12.250;2022-11-15T08:27:30;99685.06;;;5.16;100.00
39699;BME280;25372;50.582;12.250;2022-11-15T08:38:11;99670.47;;;5.39;100.00
39699;BME280;25372;50.582;12.250;2022-11-15T08:48:51;99662.50;;;5.57;100.00
39699;BME280;25372;50.582;12.250;2022-11-15T08:59:32;99643.09;;;5.85;100.00
39699;BME280;25372;50.582;12.250;2022-11-15T09:10:11;99644.44;;;6.23;100.00
39699;BME280;25372;50.582;12.250;2022-11-15T09:20:55;99641.47;;;6.35;100.00
39699;BME280;25372;50.582;12.250;2022-11-15T09:31:35;99637.59;;;6.63;100.00
39699;BME280;25372;50.582;12.250;2022-11-15T09:42:30;99620.31;;;7.02;100.00
39699;BME280;25372;50.582;12.250;2022-11-15T09:53:25;99618.47;;;7.36;100.00
39699;BME280;25372;50.582;12.250;2022-11-15T10:03:48;99597.75;;;7.72;100.00
39699;BME280;25372;50.582;12.250;2022-11-15T10:14:12;99578.13;;;7.75;100.00
39699;BME280;25372;50.582;12.250;2022-11-15T10:24:37;99575.69;;;7.96;100.00
39699;BME280;25372;50.582;12.250;2022-11-15T10:35:23;99560.88;;;7.95;100.00
39699;BME280;25372;50.582;12.250;2022-11-15T10:45:46;99537.38;;;8.09;100.00
39699;BME280;25372;50.582;12.250;2022-11-15T10:56:12;99538.50;;;8.14;100.00
39699;BME280;25372;50.582;12.250;2022-11-15T11:06:47;99497.94;;;8.30;100.00
39699;BME280;25372;50.582;12.250;2022-11-15T11:17:13;99492.56;;;8.47;100.00
39699;BME280;25372;50.582;12.250;2022-11-15T11:27:43;99482.75;;;8.70;100.00
39699;BME280;25372;50.582;12.250;2022-11-15T11:38:17;99474.13;;;8.77;96.79
39699;BME280;25372;50.582;12.250;2022-11-15T11:48:42;99461.00;;;8.83;95.86
39699;BME280;25372;50.582;12.250;2022-11-15T11:59:10;99457.56;;;8.83;96.59
39699;BME280;25372;50.582;12.250;2022-11-15T12:09:43;99423.94;;;8.77;95.12
39699;BME280;25372;50.582;12.250;2022-11-15T12:20:14;99415.53;;;8.88;94.10
39699;BME280;25372;50.582;12.250;2022-11-15T12:30:44;99395.66;;;8.92;93.12
39699;BME280;25372;50.582;12.250;2022-11-15T12:41:15;99385.56;;;8.96;93.78
39699;BME280;25372;50.582;12.250;2022-11-15T12:52:05;99381.72;;;8.83;92.54
39699;BME280;25372;50.582;12.250;2022-11-15T13:02:29;99354.19;;;8.93;92.29
39699;BME280;25372;50.582;12.250;2022-11-15T13:12:58;99362.97;;;8.78;91.63
39699;BME280;25372;50.582;12.250;2022-11-15T13:23:21;99350.13;;;8.60;93.26
39699;BME280;25372;50.582;12.250;2022-11-15T13:33:44;99351.97;;;8.45;92.67
39699;BME280;25372;50.582;12.250;2022-11-15T13:44:19;99345.25;;;8.34;92.59
39699;BME280;25372;50.582;12.250;2022-11-15T13:54:43;99329.06;;;7.84;94.89
39699;BME280;25372;50.582;12.250;2022-11-15T14:05:15;99332.91;;;7.58;96.40
39699;BME280;25372;50.582;12.250;2022-11-15T14:15:39;99333.59;;;7.29;97.80
39699;BME280;25372;50.582;12.250;2022-11-15T14:26:00;99335.41;;;7.05;98.99
39699;BME280;25372;50.582;12.250;2022-11-15T14:36:23;99330.59;;;6.77;100.00
39699;BME280;25372;50.582;12.250;2022-11-15T14:46:44;99335.47;;;6.49;100.00
39699;BME280;25372;50.582;12.250;2022-11-15T14:57:06;99323.53;;;6.22;100.00
39699;BME280;25372;50.582;12.250;2022-11-15T15:07:27;99317.47;;;5.88;100.00
39699;BME280;25372;50.582;12.250;2022-11-15T15:17:49;99311.06;;;5.66;100.00
39699;BME280;25372;50.582;12.250;2022-11-15T15:28:10;99304.47;;;5.29;100.00
39699;BME280;25372;50.582;12.250;2022-11-15T15:38:32;99317.38;;;4.98;100.00
39699;BME280;25372;50.582;12.250;2022-11-15T15:48:53;99310.00;;;4.85;100.00
39699;BME280;25372;50.582;12.250;2022-11-15T15:59:15;99305.56;;;4.43;100.00
39699;BME280;25372;50.582;12.250;2022-11-15T16:09:36;99321.59;;;4.40;100.00
39699;BME280;25372;50.582;12.250;2022-11-15T16:20:22;99311.84;;;4.24;100.00
39699;BME280;25372;50.582;12.250;2022-11-15T16:30:43;99309.19;;;4.15;100.00
39699;BME280;25372;50.582;12.250;2022-11-15T16:41:06;99301.41;;;4.06;100.00
39699;BME280;25372;50.582;12.250;2022-11-15T16:51:27;99299.88;;;3.95;100.00
39699;BME280;25372;50.582;12.250;2022-11-15T17:01:49;99290.44;;;4.02;100.00
39699;BME280;25372;50.582;12.250;2022-11-15T17:12:11;99279.09;;;3.75;100.00
39699;BME280;25372;50.582;12.250;2022-11-15T17:22:34;99273.81;;;3.67;100.00
39699;BME280;25372;50.582;12.250;2022-11-15T17:32:55;99262.94;;;3.62;100.00
39699;BME280;25372;50.582;12.250;2022-11-15T17:43:18;99271.44;;;3.38;100.00
39699;BME280;25372;50.582;12.250;2022-11-15T17:53:40;99268.59;;;3.31;100.00
39699;BME280;25372;50.582;12.250;2022-11-15T18:04:06;99251.16;;;3.40;100.00
39699;BME280;25372;50.582;12.250;2022-11-15T18:14:27;99243.97;;;3.42;100.00
39699;BME280;25372;50.582;12.250;2022-11-15T18:24:50;99235.22;;;3.33;100.00
39699;BME280;25372;50.582;12.250;2022-11-15T18:35:11;99222.88;;;3.25;100.00
39699;BME280;25372;50.582;12.250;2022-11-15T18:45:34;99220.59;;;3.22;100.00
39699;BME280;25372;50.582;12.250;2022-11-15T18:55:59;99202.03;;;3.16;100.00
39699;BME280;25372;50.582;12.250;2022-11-15T19:06:22;99217.59;;;2.99;100.00
39699;BME280;25372;50.582;12.250;2022-11-15T19:16:45;99210.25;;;2.85;100.00
39699;BME280;25372;50.582;12.250;2022-11-15T19:27:09;99205.63;;;2.96;100.00
39699;BME280;25372;50.582;12.250;2022-11-15T19:37:30;99211.06;;;2.85;100.00
39699;BME280;25372;50.582;12.250;2022-11-15T19:47:58;99206.81;;;2.66;100.00
39699;BME280;25372;50.582;12.250;2022-11-15T19:58:19;99196.72;;;2.71;100.00
39699;BME280;25372;50.582;12.250;2022-11-15T20:08:41;99186.53;;;2.50;100.00
39699;BME280;25372;50.582;12.250;2022-11-15T20:19:03;99190.00;;;2.51;100.00
39699;BME280;25372;50.582;12.250;2022-11-15T20:29:27;99190.25;;;2.30;100.00
39699;BME280;25372;50.582;12.250;2022-11-15T20:39:48;99179.59;;;2.59;100.00
39699;BME280;25372;50.582;12.250;2022-11-15T20:50:10;99164.59;;;2.61;100.00
39699;BME280;25372;50.582;12.250;2022-11-15T21:00:31;99169.41;;;2.38;100.00
39699;BME280;25372;50.582;12.250;2022-11-15T21:10:53;99165.47;;;2.52;100.00
39699;BME280;25372;50.582;12.250;2022-11-15T21:21:32;99141.41;;;2.48;100.00
39699;BME280;25372;50.582;12.250;2022-11-15T21:31:54;99136.31;;;2.47;100.00
39699;BME280;25372;50.582;12.250;2022-11-15T21:42:15;99129.28;;;2.29;100.00
39699;BME280;25372;50.582;12.250;2022-11-15T21:52:37;99119.63;;;2.12;100.00
39699;BME280;25372;50.582;12.250;2022-11-15T22:02:59;99105.78;;;2.01;100.00
39699;BME280;25372;50.582;12.250;2022-11-15T22:13:21;99120.75;;;1.81;100.00
39699;BME280;25372;50.582;12.250;2022-11-15T22:23:43;99096.59;;;1.69;100.00
39699;BME280;25372;50.582;12.250;2022-11-15T22:34:06;99083.06;;;1.84;100.00
39699;BME280;25372;50.582;12.250;2022-11-15T22:44:27;99062.84;;;1.58;100.00
39699;BME280;25372;50.582;12.250;2022-11-15T22:54:49;99043.78;;;1.76;100.00
39699;BME280;25372;50.582;12.250;2022-11-15T23:05:11;99033.38;;;1.66;100.00
39699;BME280;25372;50.582;12.250;2022-11-15T23:15:33;99029.50;;;1.70;100.00
39699;BME280;25372;50.582;12.250;2022-11-15T23:26:07;99011.91;;;1.72;100.00
39699;BME280;25372;50.582;12.250;2022-11-15T23:36:31;98960.81;;;1.42;100.00
39699;BME280;25372;50.582;12.250;2022-11-15T23:46:52;98985.63;;;1.73;100.00
39699;BME280;25372;50.582;12.250;2022-11-15T23:57:14;98982.56;;;1.96;100.00
